sensor_id;sensor_type;location;lat;lon;timestamp;temperature;humidity
2260;DHT22;333;48.800;9.530;2023-05-10T00:01:36;14.40;99.60
2260;DHT22;333;48.800;9.530;2023-05-10T00:04:03;14.40;99.60
2260;DHT22;333;48.800;9.530;2023-05-10T00:06:31;14.40;99.60
2260;DHT22;333;48.800;9.530;2023-05-10T00:08:58;14.30;99.60
2260;DHT22;333;48.800;9.530;2023-05-10T00:11:26;14.30;99.60
2260;DHT22;333;48.800;9.530;2023-05-10T00:13:53;14.30;99.60
2260;DHT22;333;48.800;9.530;2023-05-10T00:16:20;14.20;99.60
2260;DHT22;333;48.800;9.530;2023-05-10T00:18:47;14.20;99.60
2260;DHT22;333;48.800;9.530;2023-05-10T00:21:14;14.20;99.60
2260;DHT22;333;48.800;9.530;2023-05-10T00:23:41;14.20;99.60
2260;DHT22;333;48.800;9.530;2023-05-10T00:26:08;14.20;99.60
2260;DHT22;333;48.800;9.530;2023-05-10T00:28:37;14.20;99.60
2260;DHT22;333;48.800;9.530;2023-05-10T00:31:04;14.30;99.60
2260;DHT22;333;48.800;9.530;2023-05-10T00:33:31;14.30;99.60
2260;DHT22;333;48.800;9.530;2023-05-10T00:35:58;14.30;99.60
2260;DHT22;333;48.800;9.530;2023-05-10T00:38:25;14.30;99.60
2260;DHT22;333;48.800;9.530;2023-05-10T00:40:52;14.10;99.60
2260;DHT22;333;48.800;9.530;2023-05-10T00:43:19;14.00;99.60
2260;DHT22;333;48.800;9.530;2023-05-10T00:45:48;13.80;99.60
2260;DHT22;333;48.800;9.530;2023-05-10T00:48:15;13.80;99.60
2260;DHT22;333;48.800;9.530;2023-05-10T00:50:42;13.70;99.60
2260;DHT22;333;48.800;9.530;2023-05-10T00:53:10;13.70;99.60
2260;DHT22;333;48.800;9.530;2023-05-10T00:55:37;13.70;99.60
2260;DHT22;333;48.800;9.530;2023-05-10T00:58:04;13.60;99.60
2260;DHT22;333;48.800;9.530;2023-05-10T01:00:33;13.60;99.60
2260;DHT22;333;48.800;9.530;2023-05-10T01:03:02;13.50;99.60
2260;DHT22;333;48.800;9.530;2023-05-10T01:05:29;13.50;99.60
2260;DHT22;333;48.800;9.530;2023-05-10T01:07:57;13.50;99.60
2260;DHT22;333;48.800;9.530;2023-05-10T01:10:24;13.50;99.60
2260;DHT22;333;48.800;9.530;2023-05-10T01:12:51;13.50;99.60
2260;DHT22;333;48.800;9.530;2023-05-10T01:15:20;13.40;99.60
2260;DHT22;333;48.800;9.530;2023-05-10T01:17:48;13.40;99.60
2260;DHT22;333;48.800;9.530;2023-05-10T01:20:17;13.40;99.60
2260;DHT22;333;48.800;9.530;2023-05-10T01:26:14;13.40;99.60
2260;DHT22;333;48.800;9.530;2023-05-10T01:32:08;13.30;99.60
2260;DHT22;333;48.800;9.530;2023-05-10T01:34:44;13.30;99.60
2260;DHT22;333;48.800;9.530;2023-05-10T01:37:18;13.30;99.60
2260;DHT22;333;48.800;9.530;2023-05-10T01:39:49;13.30;99.60
2260;DHT22;333;48.800;9.530;2023-05-10T01:42:21;13.20;99.60
2260;DHT22;333;48.800;9.530;2023-05-10T01:44:56;13.20;99.60
2260;DHT22;333;48.800;9.530;2023-05-10T01:47:31;13.20;99.60
2260;DHT22;333;48.800;9.530;2023-05-10T01:50:03;13.20;99.60
2260;DHT22;333;48.800;9.530;2023-05-10T01:52:33;13.20;99.60
2260;DHT22;333;48.800;9.530;2023-05-10T01:55:06;13.20;99.60
2260;DHT22;333;48.800;9.530;2023-05-10T01:57:36;13.20;99.60
2260;DHT22;333;48.800;9.530;2023-05-10T02:00:07;13.20;99.60
2260;DHT22;333;48.800;9.530;2023-05-10T02:02:40;13.10;99.60
2260;DHT22;333;48.800;9.530;2023-05-10T02:05:09;13.10;99.60
2260;DHT22;333;48.800;9.530;2023-05-10T02:07:39;13.10;99.60
2260;DHT22;333;48.800;9.530;2023-05-10T02:10:08;13.10;99.60
2260;DHT22;333;48.800;9.530;2023-05-10T02:12:37;13.10;99.60
2260;DHT22;333;48.800;9.530;2023-05-10T02:15:07;13.00;99.60
2260;DHT22;333;48.800;9.530;2023-05-10T02:17:38;13.00;99.60
2260;DHT22;333;48.800;9.530;2023-05-10T02:20:07;13.00;99.60
2260;DHT22;333;48.800;9.530;2023-05-10T02:22:35;13.00;99.60
2260;DHT22;333;48.800;9.530;2023-05-10T02:25:04;13.00;99.60
2260;DHT22;333;48.800;9.530;2023-05-10T02:27:33;13.00;99.60
2260;DHT22;333;48.800;9.530;2023-05-10T02:30:01;12.90;99.60
2260;DHT22;333;48.800;9.530;2023-05-10T02:32:29;12.90;99.60
2260;DHT22;333;48.800;9.530;2023-05-10T02:35:00;13.00;99.60
2260;DHT22;333;48.800;9.530;2023-05-10T02:37:29;12.90;99.60
2260;DHT22;333;48.800;9.530;2023-05-10T02:39:56;12.90;99.60
2260;DHT22;333;48.800;9.530;2023-05-10T02:42:25;12.90;99.60
2260;DHT22;333;48.800;9.530;2023-05-10T02:44:57;12.80;99.60
2260;DHT22;333;48.800;9.530;2023-05-10T02:47:26;12.80;99.60
2260;DHT22;333;48.800;9.530;2023-05-10T02:49:54;12.80;99.60
2260;DHT22;333;48.800;9.530;2023-05-10T02:52:27;12.80;99.60
2260;DHT22;333;48.800;9.530;2023-05-10T02:54:58;12.80;99.60
2260;DHT22;333;48.800;9.530;2023-05-10T02:57:28;12.70;99.60
2260;DHT22;333;48.800;9.530;2023-05-10T02:59:56;12.70;99.60
2260;DHT22;333;48.800;9.530;2023-05-10T03:02:24;12.70;99.60
2260;DHT22;333;48.800;9.530;2023-05-10T03:04:51;12.70;99.60
2260;DHT22;333;48.800;9.530;2023-05-10T03:07:18;12.70;99.60
2260;DHT22;333;48.800;9.530;2023-05-10T03:09:48;12.70;99.60
2260;DHT22;333;48.800;9.530;2023-05-10T03:12:21;12.70;99.60
2260;DHT22;333;48.800;9.530;2023-05-10T03:14:58;12.70;99.60
2260;DHT22;333;48.800;9.530;2023-05-10T03:17:35;12.70;99.60
2260;DHT22;333;48.800;9.530;2023-05-10T03:20:09;12.70;99.60
2260;DHT22;333;48.800;9.530;2023-05-10T03:22:38;12.70;99.60
2260;DHT22;333;48.800;9.530;2023-05-10T03:25:10;12.80;99.60
2260;DHT22;333;48.800;9.530;2023-05-10T03:27:40;12.80;99.60
2260;DHT22;333;48.800;9.530;2023-05-10T03:30:11;12.80;99.60
2260;DHT22;333;48.800;9.530;2023-05-10T03:32:44;12.80;99.60
2260;DHT22;333;48.800;9.530;2023-05-10T03:35:12;12.80;99.60
2260;DHT22;333;48.800;9.530;2023-05-10T03:37:39;12.80;99.60
2260;DHT22;333;48.800;9.530;2023-05-10T03:40:10;12.80;99.60
2260;DHT22;333;48.800;9.530;2023-05-10T03:42:37;12.70;99.60
2260;DHT22;333;48.800;9.530;2023-05-10T03:45:05;12.80;99.60
2260;DHT22;333;48.800;9.530;2023-05-10T03:47:33;12.80;99.60
2260;DHT22;333;48.800;9.530;2023-05-10T03:50:00;12.80;99.60
2260;DHT22;333;48.800;9.530;2023-05-10T03:52:28;12.80;99.60
2260;DHT22;333;48.800;9.530;2023-05-10T03:54:54;12.70;99.60
2260;DHT22;333;48.800;9.530;2023-05-10T03:57:23;12.70;99.60
2260;DHT22;333;48.800;9.530;2023-05-10T03:59:50;12.70;99.60
2260;DHT22;333;48.800;9.530;2023-05-10T04:02:17;12.70;99.60
2260;DHT22;333;48.800;9.530;2023-05-10T04:04:44;12.80;99.60
2260;DHT22;333;48.800;9.530;2023-05-10T04:07:11;12.70;99.60
2260;DHT22;333;48.800;9.530;2023-05-10T04:09:38;12.70;99.60
2260;DHT22;333;48.800;9.530;2023-05-10T04:12:05;12.70;99.60
2260;DHT22;333;48.800;9.530;2023-05-10T04:14:34;12.70;99.60
2260;DHT22;333;48.800;9.530;2023-05-10T04:17:01;12.80;99.60
2260;DHT22;333;48.800;9.530;2023-05-10T04:19:29;13.00;99.60
2260;DHT22;333;48.800;9.530;2023-05-10T04:21:56;13.00;99.60
2260;DHT22;333;48.800;9.530;2023-05-10T04:24:24;13.00;99.60
2260;DHT22;333;48.800;9.530;2023-05-10T04:26:51;13.00;99.60
2260;DHT22;333;48.800;9.530;2023-05-10T04:29:18;13.00;99.60
2260;DHT22;333;48.800;9.530;2023-05-10T04:31:46;13.00;99.60
2260;DHT22;333;48.800;9.530;2023-05-10T04:34:14;13.00;99.60
2260;DHT22;333;48.800;9.530;2023-05-10T04:36:41;13.00;99.60
2260;DHT22;333;48.800;9.530;2023-05-10T04:39:08;13.10;99.60
2260;DHT22;333;48.800;9.530;2023-05-10T04:41:37;13.10;99.60
2260;DHT22;333;48.800;9.530;2023-05-10T04:44:05;13.20;99.60
2260;DHT22;333;48.800;9.530;2023-05-10T04:46:32;13.20;99.60
2260;DHT22;333;48.800;9.530;2023-05-10T04:49:00;13.20;99.60
2260;DHT22;333;48.800;9.530;2023-05-10T04:51:27;13.20;99.60
2260;DHT22;333;48.800;9.530;2023-05-10T04:53:54;13.20;99.60
2260;DHT22;333;48.800;9.530;2023-05-10T04:56:21;13.30;99.60
2260;DHT22;333;48.800;9.530;2023-05-10T04:58:48;13.30;99.60
2260;DHT22;333;48.800;9.530;2023-05-10T05:01:16;13.40;99.60
2260;DHT22;333;48.800;9.530;2023-05-10T05:03:43;13.40;99.60
2260;DHT22;333;48.800;9.530;2023-05-10T05:06:11;13.40;99.60
2260;DHT22;333;48.800;9.530;2023-05-10T05:08:38;13.40;99.60
2260;DHT22;333;48.800;9.530;2023-05-10T05:11:05;13.40;99.60
2260;DHT22;333;48.800;9.530;2023-05-10T05:13:32;13.40;99.60
2260;DHT22;333;48.800;9.530;2023-05-10T05:16:00;13.50;99.60
2260;DHT22;333;48.800;9.530;2023-05-10T05:18:28;13.50;99.60
2260;DHT22;333;48.800;9.530;2023-05-10T05:20:55;13.50;99.60
2260;DHT22;333;48.800;9.530;2023-05-10T05:23:23;13.50;99.60
2260;DHT22;333;48.800;9.530;2023-05-10T05:25:51;13.60;99.60
2260;DHT22;333;48.800;9.530;2023-05-10T05:28:18;13.50;99.60
2260;DHT22;333;48.800;9.530;2023-05-10T05:30:45;13.50;99.60
2260;DHT22;333;48.800;9.530;2023-05-10T05:33:13;13.60;99.60
2260;DHT22;333;48.800;9.530;2023-05-10T05:35:40;13.70;99.60
2260;DHT22;333;48.800;9.530;2023-05-10T05:38:08;13.80;99.60
2260;DHT22;333;48.800;9.530;2023-05-10T05:40:37;13.80;99.60
2260;DHT22;333;48.800;9.530;2023-05-10T05:43:04;13.80;99.60
2260;DHT22;333;48.800;9.530;2023-05-10T05:45:31;13.80;99.60
2260;DHT22;333;48.800;9.530;2023-05-10T05:47:58;13.80;99.60
2260;DHT22;333;48.800;9.530;2023-05-10T05:50:25;13.80;99.60
2260;DHT22;333;48.800;9.530;2023-05-10T05:52:52;13.80;99.60
2260;DHT22;333;48.800;9.530;2023-05-10T05:55:19;13.80;99.60
2260;DHT22;333;48.800;9.530;2023-05-10T05:57:47;13.80;99.60
2260;DHT22;333;48.800;9.530;2023-05-10T06:00:14;14.00;99.60
2260;DHT22;333;48.800;9.530;2023-05-10T06:02:42;14.20;99.60
2260;DHT22;333;48.800;9.530;2023-05-10T06:05:09;14.20;99.60
2260;DHT22;333;48.800;9.530;2023-05-10T06:07:36;14.30;99.60
2260;DHT22;333;48.800;9.530;2023-05-10T06:10:03;14.20;99.60
2260;DHT22;333;48.800;9.530;2023-05-10T06:12:31;14.30;99.60
2260;DHT22;333;48.800;9.530;2023-05-10T06:14:59;14.30;99.60
2260;DHT22;333;48.800;9.530;2023-05-10T06:17:26;14.40;99.60
2260;DHT22;333;48.800;9.530;2023-05-10T06:19:54;14.50;99.60
2260;DHT22;333;48.800;9.530;2023-05-10T06:22:21;14.50;99.60
2260;DHT22;333;48.800;9.530;2023-05-10T06:24:48;14.50;99.60
2260;DHT22;333;48.800;9.530;2023-05-10T06:27:15;14.50;99.60
2260;DHT22;333;48.800;9.530;2023-05-10T06:29:42;14.30;99.60
2260;DHT22;333;48.800;9.530;2023-05-10T06:32:11;14.30;99.60
2260;DHT22;333;48.800;9.530;2023-05-10T06:34:38;14.10;99.60
2260;DHT22;333;48.800;9.530;2023-05-10T06:37:05;14.10;99.60
2260;DHT22;333;48.800;9.530;2023-05-10T06:39:32;14.10;99.60
2260;DHT22;333;48.800;9.530;2023-05-10T06:41:59;14.20;99.60
2260;DHT22;333;48.800;9.530;2023-05-10T06:44:27;14.30;99.60
2260;DHT22;333;48.800;9.530;2023-05-10T06:46:54;14.20;99.60
2260;DHT22;333;48.800;9.530;2023-05-10T06:49:23;14.20;99.60
2260;DHT22;333;48.800;9.530;2023-05-10T06:51:50;14.20;99.60
2260;DHT22;333;48.800;9.530;2023-05-10T06:54:17;14.20;99.60
2260;DHT22;333;48.800;9.530;2023-05-10T06:56:44;14.20;99.60
2260;DHT22;333;48.800;9.530;2023-05-10T06:59:11;14.30;99.60
2260;DHT22;333;48.800;9.530;2023-05-10T07:01:39;14.40;99.60
2260;DHT22;333;48.800;9.530;2023-05-10T07:04:06;14.30;99.60
2260;DHT22;333;48.800;9.530;2023-05-10T07:06:34;14.40;99.60
2260;DHT22;333;48.800;9.530;2023-05-10T07:09:01;14.30;99.60
2260;DHT22;333;48.800;9.530;2023-05-10T07:11:28;14.30;99.60
2260;DHT22;333;48.800;9.530;2023-05-10T07:13:55;14.50;99.60
2260;DHT22;333;48.800;9.530;2023-05-10T07:16:22;14.50;99.60
2260;DHT22;333;48.800;9.530;2023-05-10T07:18:49;14.70;99.60
2260;DHT22;333;48.800;9.530;2023-05-10T07:21:18;14.80;99.60
2260;DHT22;333;48.800;9.530;2023-05-10T07:23:47;15.00;99.60
2260;DHT22;333;48.800;9.530;2023-05-10T07:26:14;15.10;99.60
2260;DHT22;333;48.800;9.530;2023-05-10T07:28:41;15.20;99.60
2260;DHT22;333;48.800;9.530;2023-05-10T07:31:08;15.20;99.60
2260;DHT22;333;48.800;9.530;2023-05-10T07:33:35;15.30;99.60
2260;DHT22;333;48.800;9.530;2023-05-10T07:36:02;15.40;99.60
2260;DHT22;333;48.800;9.530;2023-05-10T07:38:29;15.40;99.60
2260;DHT22;333;48.800;9.530;2023-05-10T07:40:57;15.30;99.60
2260;DHT22;333;48.800;9.530;2023-05-10T07:43:25;15.20;99.60
2260;DHT22;333;48.800;9.530;2023-05-10T07:45:52;15.10;99.60
2260;DHT22;333;48.800;9.530;2023-05-10T07:48:19;15.10;99.60
2260;DHT22;333;48.800;9.530;2023-05-10T07:50:46;15.20;99.60
2260;DHT22;333;48.800;9.530;2023-05-10T07:53:13;15.30;99.60
2260;DHT22;333;48.800;9.530;2023-05-10T07:55:40;15.30;99.60
2260;DHT22;333;48.800;9.530;2023-05-10T07:58:08;15.40;99.60
2260;DHT22;333;48.800;9.530;2023-05-10T08:00:35;15.50;99.60
2260;DHT22;333;48.800;9.530;2023-05-10T08:03:04;15.60;99.60
2260;DHT22;333;48.800;9.530;2023-05-10T08:05:31;15.70;99.60
2260;DHT22;333;48.800;9.530;2023-05-10T08:07:58;15.70;99.60
2260;DHT22;333;48.800;9.530;2023-05-10T08:10:25;15.80;99.60
2260;DHT22;333;48.800;9.530;2023-05-10T08:12:52;16.00;99.60
2260;DHT22;333;48.800;9.530;2023-05-10T08:15:21;16.20;99.60
2260;DHT22;333;48.800;9.530;2023-05-10T08:17:48;16.30;99.60
2260;DHT22;333;48.800;9.530;2023-05-10T08:20:15;16.50;99.60
2260;DHT22;333;48.800;9.530;2023-05-10T08:22:44;16.40;99.60
2260;DHT22;333;48.800;9.530;2023-05-10T08:25:12;16.50;99.60
2260;DHT22;333;48.800;9.530;2023-05-10T08:27:38;16.50;99.60
2260;DHT22;333;48.800;9.530;2023-05-10T08:30:07;16.50;99.60
2260;DHT22;333;48.800;9.530;2023-05-10T08:32:36;16.60;99.60
2260;DHT22;333;48.800;9.530;2023-05-10T08:35:04;16.60;99.60
2260;DHT22;333;48.800;9.530;2023-05-10T08:37:31;16.60;99.60
2260;DHT22;333;48.800;9.530;2023-05-10T08:39:58;16.60;99.60
2260;DHT22;333;48.800;9.530;2023-05-10T08:42:28;16.60;99.60
2260;DHT22;333;48.800;9.530;2023-05-10T08:44:57;16.60;99.60
2260;DHT22;333;48.800;9.530;2023-05-10T08:47:25;16.60;99.60
2260;DHT22;333;48.800;9.530;2023-05-10T08:49:54;16.70;99.60
2260;DHT22;333;48.800;9.530;2023-05-10T08:52:22;16.90;99.60
2260;DHT22;333;48.800;9.530;2023-05-10T08:54:51;16.60;99.60
2260;DHT22;333;48.800;9.530;2023-05-10T08:57:19;16.30;99.60
2260;DHT22;333;48.800;9.530;2023-05-10T08:59:46;16.20;99.60
2260;DHT22;333;48.800;9.530;2023-05-10T09:02:14;16.10;99.60
2260;DHT22;333;48.800;9.530;2023-05-10T09:04:41;16.00;99.60
2260;DHT22;333;48.800;9.530;2023-05-10T09:07:10;15.90;99.60
2260;DHT22;333;48.800;9.530;2023-05-10T09:09:38;15.90;99.60
2260;DHT22;333;48.800;9.530;2023-05-10T09:12:05;15.90;99.60
2260;DHT22;333;48.800;9.530;2023-05-10T09:14:35;15.90;99.60
2260;DHT22;333;48.800;9.530;2023-05-10T09:17:02;16.00;99.60
2260;DHT22;333;48.800;9.530;2023-05-10T09:19:29;16.10;99.60
2260;DHT22;333;48.800;9.530;2023-05-10T09:21:56;16.30;99.60
2260;DHT22;333;48.800;9.530;2023-05-10T09:24:29;16.60;99.60
2260;DHT22;333;48.800;9.530;2023-05-10T09:26:57;16.50;99.60
2260;DHT22;333;48.800;9.530;2023-05-10T09:29:24;16.60;99.60
2260;DHT22;333;48.800;9.530;2023-05-10T09:31:52;16.60;99.60
2260;DHT22;333;48.800;9.530;2023-05-10T09:34:21;16.60;99.60
2260;DHT22;333;48.800;9.530;2023-05-10T09:36:55;16.70;99.60
2260;DHT22;333;48.800;9.530;2023-05-10T09:39:32;16.70;99.60
2260;DHT22;333;48.800;9.530;2023-05-10T09:41:59;16.50;99.60
2260;DHT22;333;48.800;9.530;2023-05-10T09:44:29;16.40;99.60
2260;DHT22;333;48.800;9.530;2023-05-10T09:46:57;16.50;99.60
2260;DHT22;333;48.800;9.530;2023-05-10T09:49:24;16.60;99.60
2260;DHT22;333;48.800;9.530;2023-05-10T09:52:00;16.70;99.60
2260;DHT22;333;48.800;9.530;2023-05-10T09:54:28;16.70;99.60
2260;DHT22;333;48.800;9.530;2023-05-10T09:56:57;16.70;99.60
2260;DHT22;333;48.800;9.530;2023-05-10T09:59:25;16.80;99.60
2260;DHT22;333;48.800;9.530;2023-05-10T10:01:53;17.00;99.60
2260;DHT22;333;48.800;9.530;2023-05-10T10:04:22;17.20;99.60
2260;DHT22;333;48.800;9.530;2023-05-10T10:06:59;17.50;99.60
2260;DHT22;333;48.800;9.530;2023-05-10T10:09:27;17.70;99.60
2260;DHT22;333;48.800;9.530;2023-05-10T10:11:54;17.60;99.60
2260;DHT22;333;48.800;9.530;2023-05-10T10:14:24;17.60;99.60
2260;DHT22;333;48.800;9.530;2023-05-10T10:16:51;17.70;99.60
2260;DHT22;333;48.800;9.530;2023-05-10T10:19:19;17.40;99.60
2260;DHT22;333;48.800;9.530;2023-05-10T10:21:46;17.50;99.60
2260;DHT22;333;48.800;9.530;2023-05-10T10:24:13;17.10;99.60
2260;DHT22;333;48.800;9.530;2023-05-10T10:26:42;17.10;99.60
2260;DHT22;333;48.800;9.530;2023-05-10T10:29:18;17.20;99.60
2260;DHT22;333;48.800;9.530;2023-05-10T10:31:55;17.30;99.60
2260;DHT22;333;48.800;9.530;2023-05-10T10:34:26;17.40;99.60
2260;DHT22;333;48.800;9.530;2023-05-10T10:36:57;17.50;99.60
2260;DHT22;333;48.800;9.530;2023-05-10T10:39:24;17.70;99.60
2260;DHT22;333;48.800;9.530;2023-05-10T10:41:53;17.80;99.60
2260;DHT22;333;48.800;9.530;2023-05-10T10:44:38;17.70;99.60
2260;DHT22;333;48.800;9.530;2023-05-10T10:47:33;17.60;99.60
2260;DHT22;333;48.800;9.530;2023-05-10T10:50:04;17.40;99.60
2260;DHT22;333;48.800;9.530;2023-05-10T10:52:32;17.20;99.60
2260;DHT22;333;48.800;9.530;2023-05-10T10:55:02;16.80;99.60
2260;DHT22;333;48.800;9.530;2023-05-10T10:57:33;16.70;99.60
2260;DHT22;333;48.800;9.530;2023-05-10T11:00:23;16.40;99.60
2260;DHT22;333;48.800;9.530;2023-05-10T11:02:53;16.20;99.60
2260;DHT22;333;48.800;9.530;2023-05-10T11:05:44;16.20;99.60
2260;DHT22;333;48.800;9.530;2023-05-10T11:08:14;16.30;99.60
2260;DHT22;333;48.800;9.530;2023-05-10T11:10:53;16.30;99.60
2260;DHT22;333;48.800;9.530;2023-05-10T11:13:28;16.30;99.60
2260;DHT22;333;48.800;9.530;2023-05-10T11:15:56;16.50;99.60
2260;DHT22;333;48.800;9.530;2023-05-10T11:18:27;16.70;99.60
2260;DHT22;333;48.800;9.530;2023-05-10T11:20:57;16.80;99.60
2260;DHT22;333;48.800;9.530;2023-05-10T11:23:30;16.70;99.60
2260;DHT22;333;48.800;9.530;2023-05-10T11:25:58;16.80;99.60
2260;DHT22;333;48.800;9.530;2023-05-10T11:28:26;16.80;99.60
2260;DHT22;333;48.800;9.530;2023-05-10T11:30:54;16.70;99.60
2260;DHT22;333;48.800;9.530;2023-05-10T11:33:22;16.70;99.60
2260;DHT22;333;48.800;9.530;2023-05-10T11:35:50;16.70;99.60
2260;DHT22;333;48.800;9.530;2023-05-10T11:38:19;16.70;99.60
2260;DHT22;333;48.800;9.530;2023-05-10T11:40:46;16.70;99.60
2260;DHT22;333;48.800;9.530;2023-05-10T11:43:13;16.80;99.60
2260;DHT22;333;48.800;9.530;2023-05-10T11:45:41;17.00;99.60
2260;DHT22;333;48.800;9.530;2023-05-10T11:48:08;17.10;99.60
2260;DHT22;333;48.800;9.530;2023-05-10T11:50:35;17.10;99.60
2260;DHT22;333;48.800;9.530;2023-05-10T11:53:04;17.20;99.60
2260;DHT22;333;48.800;9.530;2023-05-10T11:55:33;17.20;99.60
2260;DHT22;333;48.800;9.530;2023-05-10T11:58:01;17.10;99.60
2260;DHT22;333;48.800;9.530;2023-05-10T12:00:29;16.90;99.60
2260;DHT22;333;48.800;9.530;2023-05-10T12:02:56;16.70;99.60
2260;DHT22;333;48.800;9.530;2023-05-10T12:05:24;16.60;99.60
2260;DHT22;333;48.800;9.530;2023-05-10T12:07:51;16.50;99.60
2260;DHT22;333;48.800;9.530;2023-05-10T12:10:26;16.50;99.60
2260;DHT22;333;48.800;9.530;2023-05-10T12:12:53;16.60;99.60
2260;DHT22;333;48.800;9.530;2023-05-10T12:15:22;16.40;99.60
2260;DHT22;333;48.800;9.530;2023-05-10T12:17:50;16.30;99.60
2260;DHT22;333;48.800;9.530;2023-05-10T12:20:18;16.30;99.60
2260;DHT22;333;48.800;9.530;2023-05-10T12:22:47;16.20;99.60
2260;DHT22;333;48.800;9.530;2023-05-10T12:25:14;16.20;99.60
2260;DHT22;333;48.800;9.530;2023-05-10T12:27:48;16.20;99.60
2260;DHT22;333;48.800;9.530;2023-05-10T12:30:20;16.20;99.60
2260;DHT22;333;48.800;9.530;2023-05-10T12:32:47;16.20;99.60
2260;DHT22;333;48.800;9.530;2023-05-10T12:35:14;16.00;99.60
2260;DHT22;333;48.800;9.530;2023-05-10T12:37:42;15.90;99.60
2260;DHT22;333;48.800;9.530;2023-05-10T12:40:10;15.90;99.60
2260;DHT22;333;48.800;9.530;2023-05-10T12:42:38;15.90;99.60
2260;DHT22;333;48.800;9.530;2023-05-10T12:45:08;15.90;99.60
2260;DHT22;333;48.800;9.530;2023-05-10T12:47:35;15.90;99.60
2260;DHT22;333;48.800;9.530;2023-05-10T12:50:03;15.90;99.60
2260;DHT22;333;48.800;9.530;2023-05-10T12:52:31;15.90;99.60
2260;DHT22;333;48.800;9.530;2023-05-10T12:54:59;15.80;99.60
2260;DHT22;333;48.800;9.530;2023-05-10T12:57:26;15.70;99.60
2260;DHT22;333;48.800;9.530;2023-05-10T12:59:54;15.60;99.60
2260;DHT22;333;48.800;9.530;2023-05-10T13:02:23;15.60;99.60
2260;DHT22;333;48.800;9.530;2023-05-10T13:04:50;15.60;99.60
2260;DHT22;333;48.800;9.530;2023-05-10T13:07:17;15.60;99.60
2260;DHT22;333;48.800;9.530;2023-05-10T13:09:44;15.70;99.60
2260;DHT22;333;48.800;9.530;2023-05-10T13:12:11;15.80;99.60
2260;DHT22;333;48.800;9.530;2023-05-10T13:14:38;16.10;99.60
2260;DHT22;333;48.800;9.530;2023-05-10T13:17:07;16.40;99.60
2260;DHT22;333;48.800;9.530;2023-05-10T13:19:35;16.50;99.60
2260;DHT22;333;48.800;9.530;2023-05-10T13:22:02;16.40;99.60
2260;DHT22;333;48.800;9.530;2023-05-10T13:24:29;16.40;99.60
2260;DHT22;333;48.800;9.530;2023-05-10T13:26:57;16.40;99.60
2260;DHT22;333;48.800;9.530;2023-05-10T13:29:24;16.50;99.60
2260;DHT22;333;48.800;9.530;2023-05-10T13:31:51;16.50;99.60
2260;DHT22;333;48.800;9.530;2023-05-10T13:34:18;16.60;99.60
2260;DHT22;333;48.800;9.530;2023-05-10T13:36:48;16.50;99.60
2260;DHT22;333;48.800;9.530;2023-05-10T13:39:15;16.70;99.60
2260;DHT22;333;48.800;9.530;2023-05-10T13:41:42;16.80;99.60
2260;DHT22;333;48.800;9.530;2023-05-10T13:44:11;17.00;99.60
2260;DHT22;333;48.800;9.530;2023-05-10T13:46:38;17.10;99.60
2260;DHT22;333;48.800;9.530;2023-05-10T13:49:05;17.10;99.60
2260;DHT22;333;48.800;9.530;2023-05-10T13:51:33;17.00;99.60
2260;DHT22;333;48.800;9.530;2023-05-10T13:54:02;17.00;99.60
2260;DHT22;333;48.800;9.530;2023-05-10T13:56:29;17.00;99.60
2260;DHT22;333;48.800;9.530;2023-05-10T13:58:56;17.00;99.60
2260;DHT22;333;48.800;9.530;2023-05-10T14:01:24;17.00;99.60
2260;DHT22;333;48.800;9.530;2023-05-10T14:03:51;16.90;99.60
2260;DHT22;333;48.800;9.530;2023-05-10T14:06:18;16.70;99.60
2260;DHT22;333;48.800;9.530;2023-05-10T14:08:45;16.70;99.60
2260;DHT22;333;48.800;9.530;2023-05-10T14:11:14;16.60;99.60
2260;DHT22;333;48.800;9.530;2023-05-10T14:13:40;16.60;99.60
2260;DHT22;333;48.800;9.530;2023-05-10T14:16:08;16.50;99.60
2260;DHT22;333;48.800;9.530;2023-05-10T14:18:35;16.60;99.60
2260;DHT22;333;48.800;9.530;2023-05-10T14:21:03;16.60;99.60
2260;DHT22;333;48.800;9.530;2023-05-10T14:23:30;16.80;99.60
2260;DHT22;333;48.800;9.530;2023-05-10T14:25:58;17.20;99.60
2260;DHT22;333;48.800;9.530;2023-05-10T14:28:26;17.40;99.60
2260;DHT22;333;48.800;9.530;2023-05-10T14:30:53;17.50;99.60
2260;DHT22;333;48.800;9.530;2023-05-10T14:33:20;17.50;99.60
2260;DHT22;333;48.800;9.530;2023-05-10T14:35:47;17.70;99.60
2260;DHT22;333;48.800;9.530;2023-05-10T14:38:15;17.70;99.60
2260;DHT22;333;48.800;9.530;2023-05-10T14:40:42;17.90;99.60
2260;DHT22;333;48.800;9.530;2023-05-10T14:43:09;17.90;99.60
2260;DHT22;333;48.800;9.530;2023-05-10T14:45:38;18.00;99.60
2260;DHT22;333;48.800;9.530;2023-05-10T14:48:05;17.90;99.60
2260;DHT22;333;48.800;9.530;2023-05-10T14:50:36;17.90;99.60
2260;DHT22;333;48.800;9.530;2023-05-10T14:53:03;17.80;99.60
2260;DHT22;333;48.800;9.530;2023-05-10T14:55:30;17.80;99.60
2260;DHT22;333;48.800;9.530;2023-05-10T14:57:58;17.70;99.60
2260;DHT22;333;48.800;9.530;2023-05-10T15:00:25;17.80;99.60
2260;DHT22;333;48.800;9.530;2023-05-10T15:02:53;17.80;99.60
2260;DHT22;333;48.800;9.530;2023-05-10T15:05:20;17.60;99.60
2260;DHT22;333;48.800;9.530;2023-05-10T15:07:47;17.40;99.60
2260;DHT22;333;48.800;9.530;2023-05-10T15:10:14;17.40;99.60
2260;DHT22;333;48.800;9.530;2023-05-10T15:12:42;17.30;99.60
2260;DHT22;333;48.800;9.530;2023-05-10T15:15:09;17.40;99.60
2260;DHT22;333;48.800;9.530;2023-05-10T15:17:36;17.40;99.60
2260;DHT22;333;48.800;9.530;2023-05-10T15:20:05;17.50;99.60
2260;DHT22;333;48.800;9.530;2023-05-10T15:22:33;17.50;99.60
2260;DHT22;333;48.800;9.530;2023-05-10T15:24:59;17.60;99.60
2260;DHT22;333;48.800;9.530;2023-05-10T15:27:27;17.50;99.60
2260;DHT22;333;48.800;9.530;2023-05-10T15:29:54;17.40;99.60
2260;DHT22;333;48.800;9.530;2023-05-10T15:32:21;17.50;99.60
2260;DHT22;333;48.800;9.530;2023-05-10T15:34:48;17.50;99.60
2260;DHT22;333;48.800;9.530;2023-05-10T15:37:16;17.50;99.60
2260;DHT22;333;48.800;9.530;2023-05-10T15:39:44;17.40;99.60
2260;DHT22;333;48.800;9.530;2023-05-10T15:42:12;17.50;99.60
2260;DHT22;333;48.800;9.530;2023-05-10T15:47:19;17.60;99.60
2260;DHT22;333;48.800;9.530;2023-05-10T15:49:46;17.70;99.60
2260;DHT22;333;48.800;9.530;2023-05-10T15:52:13;17.70;99.60
2260;DHT22;333;48.800;9.530;2023-05-10T15:54:42;17.90;99.60
2260;DHT22;333;48.800;9.530;2023-05-10T15:57:09;18.00;99.60
2260;DHT22;333;48.800;9.530;2023-05-10T15:59:36;18.10;99.60
2260;DHT22;333;48.800;9.530;2023-05-10T16:02:03;18.20;99.60
2260;DHT22;333;48.800;9.530;2023-05-10T16:04:30;18.10;99.60
2260;DHT22;333;48.800;9.530;2023-05-10T16:06:57;18.00;99.60
2260;DHT22;333;48.800;9.530;2023-05-10T16:09:24;17.90;99.60
2260;DHT22;333;48.800;9.530;2023-05-10T16:11:53;17.80;99.60
2260;DHT22;333;48.800;9.530;2023-05-10T16:14:20;17.70;99.60
2260;DHT22;333;48.800;9.530;2023-05-10T16:16:49;17.70;99.60
2260;DHT22;333;48.800;9.530;2023-05-10T16:19:16;17.50;99.60
2260;DHT22;333;48.800;9.530;2023-05-10T16:21:43;17.40;99.60
2260;DHT22;333;48.800;9.530;2023-05-10T16:24:10;17.40;99.60
2260;DHT22;333;48.800;9.530;2023-05-10T16:26:37;17.40;99.60
2260;DHT22;333;48.800;9.530;2023-05-10T16:29:07;17.40;99.60
2260;DHT22;333;48.800;9.530;2023-05-10T16:31:34;17.30;99.60
2260;DHT22;333;48.800;9.530;2023-05-10T16:34:01;17.10;99.60